createdAt,value
2023-06-10T00:04:08.523Z,95.26
2023-06-10T00:09:12.798Z,95.11
2023-06-10T00:14:16.902Z,94.98
2023-06-10T00:19:20.841Z,94.78
2023-06-10T00:24:25.242Z,94.56
2023-06-10T00:29:29.222Z,94.38
2023-06-10T00:34:33.745Z,94.30
2023-06-10T00:39:38.843Z,94.35
2023-06-10T00:44:43.049Z,94.35
2023-06-10T00:49:49.243Z,94.37
2023-06-10T00:54:53.224Z,94.40
2023-06-10T00:59:57.439Z,94.51
2023-06-10T01:05:05.599Z,94.44
2023-06-10T01:10:32.087Z,94.32
2023-06-10T01:15:37.137Z,94.24
2023-06-10T01:20:44.539Z,94.17
2023-06-10T01:26:02.140Z,94.17
2023-06-10T01:31:23.960Z,94.19
2023-06-10T01:36:29.383Z,94.06
2023-06-10T01:41:33.728Z,94.03
2023-06-10T01:46:37.956Z,94.29
2023-06-10T01:51:42.537Z,94.82
2023-06-10T01:56:46.483Z,95.17
2023-06-10T02:01:50.256Z,95.32
2023-06-10T02:06:55.097Z,95.39
2023-06-10T02:11:59.525Z,95.51
2023-06-10T02:17:03.967Z,95.68
2023-06-10T02:22:07.715Z,95.85
2023-06-10T02:27:13.552Z,95.77
2023-06-10T02:32:21.206Z,95.83
2023-06-10T02:37:26.478Z,95.87
2023-06-10T02:42:31.568Z,95.66
2023-06-10T02:47:38.952Z,95.36
2023-06-10T02:52:43.784Z,95.11
2023-06-10T02:57:48.703Z,94.61
2023-06-10T03:02:58.973Z,94.09
2023-06-10T03:08:07.166Z,93.78
2023-06-10T03:13:12.955Z,93.81
2023-06-10T03:18:17.706Z,93.83
2023-06-10T03:23:22.442Z,93.78
2023-06-10T03:28:27.446Z,93.74
2023-06-10T03:33:32.865Z,93.61
2023-06-10T03:38:38.264Z,93.22
2023-06-10T03:43:44.152Z,92.89
2023-06-10T03:48:50.461Z,92.55
2023-06-10T03:53:54.743Z,92.33
2023-06-10T03:59:02.256Z,92.10
2023-06-10T04:04:08.730Z,91.69
2023-06-10T04:09:13.347Z,91.53
2023-06-10T04:14:18.559Z,91.29
2023-06-10T04:19:23.503Z,90.79
2023-06-10T04:24:29.564Z,90.65
2023-06-10T04:29:39.966Z,90.37
2023-06-10T04:34:46.519Z,90.12
2023-06-10T04:39:52.357Z,89.74
2023-06-10T04:44:59.198Z,89.80
2023-06-10T04:50:05.942Z,89.85
2023-06-10T04:55:12.372Z,89.69
2023-06-10T05:00:19.888Z,89.67
2023-06-10T05:05:25.110Z,89.67
2023-06-10T05:10:33.150Z,89.56
2023-06-10T05:15:39.104Z,89.72
2023-06-10T05:20:51.564Z,89.63
2023-06-10T05:25:57.406Z,89.32
2023-06-10T05:31:02.250Z,88.72
2023-06-10T05:36:07.548Z,88.22
2023-06-10T05:41:12.728Z,88.03
2023-06-10T05:46:16.777Z,87.27
2023-06-10T05:51:23.540Z,86.50
2023-06-10T05:56:27.992Z,85.48
2023-06-10T06:01:33.147Z,83.91
2023-06-10T06:06:40.171Z,82.42
2023-06-10T06:11:45.648Z,81.50
2023-06-10T06:16:49.534Z,80.82
2023-06-10T06:21:54.228Z,80.42
2023-06-10T06:27:01.137Z,80.24
2023-06-10T06:32:11.451Z,80.00
2023-06-10T06:37:27.918Z,80.47
2023-06-10T06:42:42.158Z,79.58
2023-06-10T06:47:55.238Z,79.36
2023-06-10T06:52:59.239Z,77.99
2023-06-10T06:58:05.649Z,77.41
2023-06-10T07:03:09.786Z,77.73
2023-06-10T07:08:13.977Z,77.37
2023-06-10T07:13:19.463Z,77.76
2023-06-10T07:18:23.291Z,76.95
2023-06-10T07:23:28.107Z,76.83
2023-06-10T07:28:31.962Z,76.16
2023-06-10T07:33:36.508Z,76.11
2023-06-10T07:38:42.997Z,75.98
2023-06-10T07:43:47.517Z,74.01
2023-06-10T07:48:51.580Z,71.82
2023-06-10T07:53:55.383Z,72.44
2023-06-10T07:58:59.243Z,71.72
2023-06-10T08:04:03.734Z,71.72
2023-06-10T08:09:08.651Z,70.66
2023-06-10T08:14:12.743Z,70.11
2023-06-10T08:19:16.782Z,66.50
2023-06-10T08:24:22.371Z,65.22
2023-06-10T08:29:27.145Z,64.84
2023-06-10T08:34:34.821Z,65.24
2023-06-10T08:39:38.633Z,64.61
2023-06-10T08:44:44.075Z,63.16
2023-06-10T08:49:48.862Z,63.58
2023-06-10T08:55:05.075Z,63.74
2023-06-10T09:00:23.103Z,62.99
2023-06-10T09:05:30.873Z,62.85
2023-06-10T09:10:37.333Z,62.83
2023-06-10T09:15:44.598Z,63.16
2023-06-10T09:20:49.754Z,64.69
2023-06-10T09:25:59.670Z,63.63
2023-06-10T09:31:08.874Z,62.94
2023-06-10T09:36:25.132Z,62.99
2023-06-10T09:41:37.057Z,61.24
2023-06-10T09:46:42.280Z,60.08
2023-06-10T09:51:54.071Z,59.74
2023-06-10T09:57:01.421Z,60.61
2023-06-10T10:02:09.593Z,58.91
2023-06-10T10:07:16.715Z,56.73
2023-06-10T10:12:21.078Z,56.36
2023-06-10T10:17:28.151Z,55.77
2023-06-10T10:22:39.871Z,54.69
2023-06-10T10:27:51.015Z,53.87
2023-06-10T10:33:10.310Z,52.63
2023-06-10T10:38:15.810Z,51.82
2023-06-10T10:43:20.049Z,50.54
2023-06-10T10:48:23.994Z,51.48
2023-06-10T10:53:28.070Z,50.37
2023-06-10T10:58:33.879Z,47.76
2023-06-10T11:03:50.922Z,46.10
2023-06-10T11:08:56.177Z,44.83
2023-06-10T11:14:05.960Z,42.84
2023-06-10T11:19:34.052Z,43.30
2023-06-10T11:24:39.274Z,42.58
2023-06-10T11:30:12.269Z,42.38
2023-06-10T11:35:17.139Z,42.53
2023-06-10T11:40:24.014Z,42.47
2023-06-10T11:45:27.999Z,43.21
2023-06-10T11:50:33.155Z,40.97
2023-06-10T11:55:44.726Z,37.76
2023-06-10T12:00:51.246Z,36.96
2023-06-10T12:06:24.365Z,36.39
2023-06-10T12:11:29.549Z,35.32
2023-06-10T12:16:33.559Z,34.66
2023-06-10T12:21:38.634Z,35.27
2023-06-10T12:26:47.476Z,35.79
2023-06-10T12:32:07.465Z,35.81
2023-06-10T12:37:16.451Z,36.37
2023-06-10T12:42:25.269Z,36.87
2023-06-10T12:47:37.292Z,36.08
2023-06-10T12:52:42.561Z,36.67
2023-06-10T12:57:51.757Z,36.63
2023-06-10T13:02:55.960Z,35.94
2023-06-10T13:08:01.063Z,35.73
2023-06-10T13:13:11.437Z,34.97
2023-06-10T13:18:16.500Z,34.17
2023-06-10T13:23:24.168Z,34.12
2023-06-10T13:28:28.890Z,34.37
2023-06-10T13:33:32.882Z,32.47
2023-06-10T13:38:38.980Z,32.11
2023-06-10T13:43:43.495Z,32.55
2023-06-10T13:48:47.314Z,32.97
2023-06-10T13:53:53.324Z,32.68
2023-06-10T13:58:57.787Z,31.32
2023-06-10T14:04:02.338Z,31.38
2023-06-10T14:09:07.170Z,30.16
2023-06-10T14:14:12.389Z,30.32
2023-06-10T14:19:18.312Z,30.06
2023-06-10T14:24:24.257Z,29.91
2023-06-10T14:29:32.720Z,30.87
2023-06-10T14:34:36.875Z,30.15
2023-06-10T14:39:40.888Z,30.74
2023-06-10T14:44:44.976Z,30.36
2023-06-10T14:49:50.449Z,30.85
2023-06-10T14:54:54.713Z,29.90
2023-06-10T14:59:58.641Z,29.87
2023-06-10T15:05:02.542Z,30.01
2023-06-10T15:10:07.469Z,30.21
2023-06-10T15:15:12.244Z,30.45
2023-06-10T15:20:16.986Z,29.02
2023-06-10T15:25:30.706Z,28.88
2023-06-10T15:30:38.785Z,28.91
2023-06-10T15:35:44.902Z,29.64
2023-06-10T15:40:48.959Z,30.32
2023-06-10T15:45:52.915Z,29.34
2023-06-10T15:50:57.035Z,28.31
2023-06-10T15:56:00.931Z,28.71
2023-06-10T16:01:04.897Z,28.49
2023-06-10T16:06:08.950Z,28.38
2023-06-10T16:11:13.855Z,29.38
2023-06-10T16:16:20.847Z,29.30
2023-06-10T16:21:27.302Z,29.52
2023-06-10T16:26:31.782Z,28.15
2023-06-10T16:31:36.236Z,28.97
2023-06-10T16:36:40.904Z,29.78
2023-06-10T16:41:45.085Z,30.83
2023-06-10T16:46:49.114Z,31.31
2023-06-10T16:51:53.225Z,31.05
2023-06-10T16:56:57.242Z,30.56
2023-06-10T17:02:03.495Z,30.35
2023-06-10T17:07:07.948Z,29.79
2023-06-10T17:12:12.559Z,28.24
2023-06-10T17:17:18.907Z,27.26
2023-06-10T17:22:24.902Z,27.57
2023-06-10T17:27:28.906Z,29.03
2023-06-10T17:32:34.963Z,29.62
2023-06-10T17:37:39.679Z,29.61
2023-06-10T17:42:43.578Z,29.98
2023-06-10T17:47:50.051Z,30.80
2023-06-10T17:52:56.029Z,31.63
2023-06-10T17:58:00.078Z,32.44
2023-06-10T18:03:06.727Z,33.40
2023-06-10T18:08:11.614Z,34.59
2023-06-10T18:13:16.623Z,35.46
2023-06-10T18:18:20.613Z,36.14
2023-06-10T18:23:25.294Z,36.60
2023-06-10T18:28:31.373Z,37.39
2023-06-10T18:33:38.211Z,38.41
2023-06-10T18:38:42.135Z,39.14
2023-06-10T18:43:46.454Z,39.88
2023-06-10T18:48:51.756Z,39.68
2023-06-10T18:53:55.780Z,40.04
2023-06-10T18:59:03.101Z,41.20
2023-06-10T19:04:07.676Z,41.92
2023-06-10T19:09:15.052Z,42.62
2023-06-10T19:14:18.957Z,43.37
2023-06-10T19:19:28.657Z,44.08
2023-06-10T19:24:37.635Z,44.27
2023-06-10T19:29:44.927Z,44.46
2023-06-10T19:34:54.307Z,44.18
2023-06-10T19:40:00.993Z,44.41
2023-06-10T19:45:08.025Z,44.57
2023-06-10T19:50:13.148Z,44.42
2023-06-10T19:55:18.497Z,44.91
2023-06-10T20:00:23.600Z,45.09
2023-06-10T20:05:27.541Z,45.16
2023-06-10T20:10:31.490Z,45.16
2023-06-10T20:15:35.508Z,45.73
2023-06-10T20:20:39.480Z,45.49
2023-06-10T20:25:43.568Z,45.71
2023-06-10T20:30:48.284Z,45.51
2023-06-10T20:35:52.470Z,45.75
2023-06-10T20:40:56.450Z,45.81
2023-06-10T20:46:01.434Z,46.03
2023-06-10T20:51:05.513Z,46.89
2023-06-10T20:56:09.516Z,47.02
2023-06-10T21:01:13.505Z,47.28
2023-06-10T21:06:18.153Z,46.50
2023-06-10T21:11:22.985Z,47.41
2023-06-10T21:16:28.136Z,47.27
2023-06-10T21:21:32.071Z,47.27
2023-06-10T21:26:36.625Z,47.03
2023-06-10T21:31:41.572Z,46.70
2023-06-10T21:36:45.413Z,46.82
2023-06-10T21:41:49.611Z,46.77
2023-06-10T21:46:53.645Z,46.65
2023-06-10T21:51:57.672Z,46.62
2023-06-10T21:57:01.659Z,47.35
2023-06-10T22:02:07.529Z,47.62
2023-06-10T22:07:11.643Z,47.56
2023-06-10T22:12:19.756Z,47.93
2023-06-10T22:17:23.927Z,47.91
2023-06-10T22:22:27.924Z,48.32
2023-06-10T22:27:31.908Z,49.28
2023-06-10T22:32:36.591Z,48.95
2023-06-10T22:37:41.008Z,49.27
2023-06-10T22:42:45.585Z,49.71
2023-06-10T22:47:50.532Z,50.93
2023-06-10T22:52:55.166Z,50.88
2023-06-10T22:57:59.620Z,51.62
2023-06-10T23:03:03.796Z,51.90
2023-06-10T23:08:08.080Z,52.38
2023-06-10T23:13:12.080Z,54.21
2023-06-10T23:18:15.833Z,54.94
2023-06-10T23:23:19.688Z,54.26
2023-06-10T23:28:23.713Z,55.34
2023-06-10T23:33:29.072Z,57.49
2023-06-10T23:38:33.450Z,57.55
2023-06-10T23:43:37.297Z,56.97
2023-06-10T23:48:41.690Z,58.28
2023-06-10T23:53:46.544Z,58.25
2023-06-10T23:58:51.153Z,57.88
